sensor_id;sensor_type;location;lat;lon;timestamp;P1;durP1;ratioP1;P2;durP2;ratioP2
27365;SDS011;14837;57.148;-2.144;2022-09-29T00:00:36;12.85;;;4.32;;
27365;SDS011;14837;57.148;-2.144;2022-09-29T00:03:03;13.15;;;4.82;;
27365;SDS011;14837;57.148;-2.144;2022-09-29T00:05:30;15.77;;;4.95;;
27365;SDS011;14837;57.148;-2.144;2022-09-29T00:07:57;19.58;;;5.63;;
27365;SDS011;14837;57.148;-2.144;2022-09-29T00:10:23;11.77;;;4.85;;
27365;SDS011;14837;57.148;-2.144;2022-09-29T00:12:50;11.52;;;5.57;;
27365;SDS011;14837;57.148;-2.144;2022-09-29T00:15:16;12.75;;;4.68;;
27365;SDS011;14837;57.148;-2.144;2022-09-29T00:17:43;14.32;;;4.90;;
27365;SDS011;14837;57.148;-2.144;2022-09-29T00:20:30;15.63;;;5.18;;
27365;SDS011;14837;57.148;-2.144;2022-09-29T00:22:56;13.52;;;4.38;;
27365;SDS011;14837;57.148;-2.144;2022-09-29T00:25:23;16.65;;;5.05;;
27365;SDS011;14837;57.148;-2.144;2022-09-29T00:27:49;11.50;;;4.75;;
27365;SDS011;14837;57.148;-2.144;2022-09-29T00:30:16;13.18;;;5.28;;
27365;SDS011;14837;57.148;-2.144;2022-09-29T00:32:43;12.80;;;4.40;;
27365;SDS011;14837;57.148;-2.144;2022-09-29T00:35:09;12.23;;;4.28;;
27365;SDS011;14837;57.148;-2.144;2022-09-29T00:37:37;14.27;;;4.43;;
27365;SDS011;14837;57.148;-2.144;2022-09-29T00:40:04;17.80;;;5.53;;
27365;SDS011;14837;57.148;-2.144;2022-09-29T00:42:31;13.98;;;5.13;;
27365;SDS011;14837;57.148;-2.144;2022-09-29T00:47:43;9.68;;;4.00;;
27365;SDS011;14837;57.148;-2.144;2022-09-29T00:52:46;10.85;;;5.78;;
27365;SDS011;14837;57.148;-2.144;2022-09-29T00:55:16;18.85;;;6.40;;
27365;SDS011;14837;57.148;-2.144;2022-09-29T00:57:55;15.20;;;4.75;;
27365;SDS011;14837;57.148;-2.144;2022-09-29T01:00:23;16.75;;;4.78;;
27365;SDS011;14837;57.148;-2.144;2022-09-29T01:02:51;9.57;;;5.05;;
27365;SDS011;14837;57.148;-2.144;2022-09-29T01:05:20;16.80;;;6.03;;
27365;SDS011;14837;57.148;-2.144;2022-09-29T01:07:48;13.77;;;5.20;;
27365;SDS011;14837;57.148;-2.144;2022-09-29T01:10:16;11.52;;;4.43;;
27365;SDS011;14837;57.148;-2.144;2022-09-29T01:12:43;11.70;;;4.93;;
27365;SDS011;14837;57.148;-2.144;2022-09-29T01:15:12;15.65;;;5.32;;
27365;SDS011;14837;57.148;-2.144;2022-09-29T01:17:38;14.55;;;4.35;;
27365;SDS011;14837;57.148;-2.144;2022-09-29T01:41:43;18.33;;;8.18;;
27365;SDS011;14837;57.148;-2.144;2022-09-29T01:46:52;11.43;;;5.13;;
27365;SDS011;14837;57.148;-2.144;2022-09-29T01:49:20;11.57;;;5.13;;
27365;SDS011;14837;57.148;-2.144;2022-09-29T01:52:07;15.27;;;7.22;;
27365;SDS011;14837;57.148;-2.144;2022-09-29T01:57:08;8.35;;;5.15;;
27365;SDS011;14837;57.148;-2.144;2022-09-29T01:59:39;12.70;;;5.90;;
27365;SDS011;14837;57.148;-2.144;2022-09-29T02:02:10;12.82;;;5.28;;
27365;SDS011;14837;57.148;-2.144;2022-09-29T02:04:41;16.40;;;4.55;;
27365;SDS011;14837;57.148;-2.144;2022-09-29T02:07:15;13.85;;;5.13;;
27365;SDS011;14837;57.148;-2.144;2022-09-29T02:09:44;7.97;;;4.90;;
27365;SDS011;14837;57.148;-2.144;2022-09-29T02:12:12;7.43;;;5.90;;
27365;SDS011;14837;57.148;-2.144;2022-09-29T02:14:41;13.50;;;5.78;;
27365;SDS011;14837;57.148;-2.144;2022-09-29T02:19:39;8.80;;;5.18;;
27365;SDS011;14837;57.148;-2.144;2022-09-29T02:22:06;14.63;;;5.82;;
27365;SDS011;14837;57.148;-2.144;2022-09-29T02:24:32;8.75;;;4.55;;
27365;SDS011;14837;57.148;-2.144;2022-09-29T02:26:59;13.80;;;7.60;;
27365;SDS011;14837;57.148;-2.144;2022-09-29T02:29:25;11.95;;;5.25;;
27365;SDS011;14837;57.148;-2.144;2022-09-29T02:31:52;12.02;;;5.35;;
27365;SDS011;14837;57.148;-2.144;2022-09-29T02:34:20;12.77;;;5.82;;
27365;SDS011;14837;57.148;-2.144;2022-09-29T02:41:53;14.85;;;6.35;;
27365;SDS011;14837;57.148;-2.144;2022-09-29T02:46:58;14.85;;;5.28;;
27365;SDS011;14837;57.148;-2.144;2022-09-29T02:51:57;13.13;;;5.30;;
27365;SDS011;14837;57.148;-2.144;2022-09-29T03:02:25;9.15;;;6.25;;
27365;SDS011;14837;57.148;-2.144;2022-09-29T03:04:52;14.02;;;5.10;;
27365;SDS011;14837;57.148;-2.144;2022-09-29T03:07:19;10.88;;;4.97;;
27365;SDS011;14837;57.148;-2.144;2022-09-29T03:09:46;12.75;;;4.93;;
27365;SDS011;14837;57.148;-2.144;2022-09-29T03:12:13;15.02;;;5.50;;
27365;SDS011;14837;57.148;-2.144;2022-09-29T03:14:39;18.52;;;6.32;;
27365;SDS011;14837;57.148;-2.144;2022-09-29T03:17:06;12.65;;;5.50;;
27365;SDS011;14837;57.148;-2.144;2022-09-29T03:19:32;13.50;;;5.10;;
27365;SDS011;14837;57.148;-2.144;2022-09-29T03:21:59;13.80;;;5.13;;
27365;SDS011;14837;57.148;-2.144;2022-09-29T03:24:25;14.00;;;5.93;;
27365;SDS011;14837;57.148;-2.144;2022-09-29T03:26:55;12.27;;;6.55;;
27365;SDS011;14837;57.148;-2.144;2022-09-29T03:29:21;13.60;;;6.47;;
27365;SDS011;14837;57.148;-2.144;2022-09-29T03:31:48;11.68;;;5.78;;
27365;SDS011;14837;57.148;-2.144;2022-09-29T03:34:15;11.55;;;5.03;;
27365;SDS011;14837;57.148;-2.144;2022-09-29T03:36:41;12.98;;;5.32;;
27365;SDS011;14837;57.148;-2.144;2022-09-29T03:39:08;11.65;;;5.25;;
27365;SDS011;14837;57.148;-2.144;2022-09-29T03:41:34;14.55;;;5.90;;
27365;SDS011;14837;57.148;-2.144;2022-09-29T03:44:01;11.93;;;6.22;;
27365;SDS011;14837;57.148;-2.144;2022-09-29T03:46:27;12.85;;;6.47;;
27365;SDS011;14837;57.148;-2.144;2022-09-29T03:48:54;20.02;;;6.88;;
27365;SDS011;14837;57.148;-2.144;2022-09-29T03:51:20;13.02;;;6.22;;
27365;SDS011;14837;57.148;-2.144;2022-09-29T03:53:47;13.55;;;5.43;;
27365;SDS011;14837;57.148;-2.144;2022-09-29T03:56:13;9.20;;;6.15;;
27365;SDS011;14837;57.148;-2.144;2022-09-29T03:58:40;11.25;;;6.25;;
27365;SDS011;14837;57.148;-2.144;2022-09-29T04:01:07;12.10;;;6.35;;
27365;SDS011;14837;57.148;-2.144;2022-09-29T04:03:33;17.63;;;6.95;;
27365;SDS011;14837;57.148;-2.144;2022-09-29T04:06:00;15.18;;;5.75;;
27365;SDS011;14837;57.148;-2.144;2022-09-29T04:08:26;13.80;;;6.63;;
27365;SDS011;14837;57.148;-2.144;2022-09-29T04:10:53;12.68;;;6.25;;
27365;SDS011;14837;57.148;-2.144;2022-09-29T04:13:19;15.73;;;6.80;;
27365;SDS011;14837;57.148;-2.144;2022-09-29T04:15:47;10.57;;;6.65;;
27365;SDS011;14837;57.148;-2.144;2022-09-29T04:18:14;13.88;;;7.20;;
27365;SDS011;14837;57.148;-2.144;2022-09-29T04:20:41;12.75;;;6.97;;
27365;SDS011;14837;57.148;-2.144;2022-09-29T04:23:07;13.00;;;8.30;;
27365;SDS011;14837;57.148;-2.144;2022-09-29T04:25:34;11.57;;;6.70;;
27365;SDS011;14837;57.148;-2.144;2022-09-29T04:28:01;13.68;;;6.68;;
27365;SDS011;14837;57.148;-2.144;2022-09-29T04:30:27;13.07;;;6.72;;
27365;SDS011;14837;57.148;-2.144;2022-09-29T04:32:54;10.43;;;5.70;;
27365;SDS011;14837;57.148;-2.144;2022-09-29T04:35:20;10.85;;;6.18;;
27365;SDS011;14837;57.148;-2.144;2022-09-29T04:37:47;12.48;;;7.47;;
27365;SDS011;14837;57.148;-2.144;2022-09-29T04:40:13;21.45;;;6.57;;
27365;SDS011;14837;57.148;-2.144;2022-09-29T04:42:40;8.43;;;5.80;;
27365;SDS011;14837;57.148;-2.144;2022-09-29T04:45:06;13.00;;;6.78;;
27365;SDS011;14837;57.148;-2.144;2022-09-29T04:47:33;14.77;;;6.85;;
27365;SDS011;14837;57.148;-2.144;2022-09-29T04:50:00;13.85;;;6.07;;
27365;SDS011;14837;57.148;-2.144;2022-09-29T04:52:26;15.10;;;6.45;;
27365;SDS011;14837;57.148;-2.144;2022-09-29T04:54:53;11.10;;;5.85;;
27365;SDS011;14837;57.148;-2.144;2022-09-29T04:57:19;10.13;;;5.25;;
27365;SDS011;14837;57.148;-2.144;2022-09-29T04:59:46;12.27;;;6.22;;
27365;SDS011;14837;57.148;-2.144;2022-09-29T05:02:12;12.88;;;6.47;;
27365;SDS011;14837;57.148;-2.144;2022-09-29T05:04:39;17.02;;;6.00;;
27365;SDS011;14837;57.148;-2.144;2022-09-29T05:07:06;12.70;;;5.30;;
27365;SDS011;14837;57.148;-2.144;2022-09-29T05:09:32;15.13;;;6.95;;
27365;SDS011;14837;57.148;-2.144;2022-09-29T05:11:59;15.18;;;6.05;;
27365;SDS011;14837;57.148;-2.144;2022-09-29T05:14:26;16.85;;;6.38;;
27365;SDS011;14837;57.148;-2.144;2022-09-29T05:16:53;16.95;;;5.45;;
27365;SDS011;14837;57.148;-2.144;2022-09-29T05:19:20;13.38;;;5.35;;
27365;SDS011;14837;57.148;-2.144;2022-09-29T05:21:46;11.90;;;5.82;;
27365;SDS011;14837;57.148;-2.144;2022-09-29T05:24:13;13.75;;;5.63;;
27365;SDS011;14837;57.148;-2.144;2022-09-29T05:26:39;11.52;;;6.00;;
27365;SDS011;14837;57.148;-2.144;2022-09-29T05:29:06;13.65;;;6.20;;
27365;SDS011;14837;57.148;-2.144;2022-09-29T05:31:32;18.25;;;7.50;;
27365;SDS011;14837;57.148;-2.144;2022-09-29T05:33:59;15.90;;;5.70;;
27365;SDS011;14837;57.148;-2.144;2022-09-29T05:36:26;14.75;;;5.97;;
27365;SDS011;14837;57.148;-2.144;2022-09-29T05:38:52;15.10;;;6.80;;
27365;SDS011;14837;57.148;-2.144;2022-09-29T05:41:19;10.70;;;4.80;;
27365;SDS011;14837;57.148;-2.144;2022-09-29T05:43:49;10.40;;;5.70;;
27365;SDS011;14837;57.148;-2.144;2022-09-29T05:46:16;11.30;;;5.32;;
27365;SDS011;14837;57.148;-2.144;2022-09-29T05:48:45;14.00;;;6.90;;
27365;SDS011;14837;57.148;-2.144;2022-09-29T05:51:12;14.50;;;5.78;;
27365;SDS011;14837;57.148;-2.144;2022-09-29T05:53:42;11.07;;;5.18;;
27365;SDS011;14837;57.148;-2.144;2022-09-29T05:56:10;11.98;;;5.57;;
27365;SDS011;14837;57.148;-2.144;2022-09-29T05:58:37;12.18;;;6.35;;
27365;SDS011;14837;57.148;-2.144;2022-09-29T06:01:07;13.00;;;5.63;;
27365;SDS011;14837;57.148;-2.144;2022-09-29T06:03:34;22.85;;;11.00;;
27365;SDS011;14837;57.148;-2.144;2022-09-29T06:06:05;12.95;;;6.55;;
27365;SDS011;14837;57.148;-2.144;2022-09-29T06:08:32;11.38;;;6.53;;
27365;SDS011;14837;57.148;-2.144;2022-09-29T06:11:05;13.45;;;6.55;;
27365;SDS011;14837;57.148;-2.144;2022-09-29T06:13:33;12.73;;;6.60;;
27365;SDS011;14837;57.148;-2.144;2022-09-29T06:15:59;9.07;;;6.63;;
27365;SDS011;14837;57.148;-2.144;2022-09-29T06:18:26;16.48;;;6.68;;
27365;SDS011;14837;57.148;-2.144;2022-09-29T06:20:52;12.18;;;6.43;;
27365;SDS011;14837;57.148;-2.144;2022-09-29T06:23:19;12.52;;;5.93;;
27365;SDS011;14837;57.148;-2.144;2022-09-29T06:25:46;10.00;;;5.70;;
27365;SDS011;14837;57.148;-2.144;2022-09-29T06:28:12;15.63;;;7.05;;
27365;SDS011;14837;57.148;-2.144;2022-09-29T06:30:39;10.25;;;5.75;;
27365;SDS011;14837;57.148;-2.144;2022-09-29T06:33:05;13.52;;;5.82;;
27365;SDS011;14837;57.148;-2.144;2022-09-29T06:35:32;9.43;;;5.82;;
27365;SDS011;14837;57.148;-2.144;2022-09-29T06:38:18;12.63;;;5.97;;
27365;SDS011;14837;57.148;-2.144;2022-09-29T06:40:44;13.32;;;6.32;;
27365;SDS011;14837;57.148;-2.144;2022-09-29T06:43:11;14.85;;;5.95;;
27365;SDS011;14837;57.148;-2.144;2022-09-29T06:45:38;10.77;;;5.05;;
27365;SDS011;14837;57.148;-2.144;2022-09-29T06:48:05;11.45;;;6.20;;
27365;SDS011;14837;57.148;-2.144;2022-09-29T06:50:35;8.85;;;4.60;;
27365;SDS011;14837;57.148;-2.144;2022-09-29T06:53:01;8.77;;;5.80;;
27365;SDS011;14837;57.148;-2.144;2022-09-29T06:55:30;9.25;;;6.05;;
27365;SDS011;14837;57.148;-2.144;2022-09-29T06:57:57;9.40;;;6.10;;
27365;SDS011;14837;57.148;-2.144;2022-09-29T07:00:29;9.60;;;5.93;;
27365;SDS011;14837;57.148;-2.144;2022-09-29T07:02:55;8.60;;;5.80;;
27365;SDS011;14837;57.148;-2.144;2022-09-29T07:05:22;13.63;;;7.00;;
27365;SDS011;14837;57.148;-2.144;2022-09-29T07:07:49;9.35;;;5.32;;
27365;SDS011;14837;57.148;-2.144;2022-09-29T07:10:19;8.80;;;5.35;;
27365;SDS011;14837;57.148;-2.144;2022-09-29T07:12:46;8.25;;;4.97;;
27365;SDS011;14837;57.148;-2.144;2022-09-29T07:15:12;11.93;;;5.35;;
27365;SDS011;14837;57.148;-2.144;2022-09-29T07:17:39;8.98;;;5.70;;
27365;SDS011;14837;57.148;-2.144;2022-09-29T07:20:06;9.90;;;4.82;;
27365;SDS011;14837;57.148;-2.144;2022-09-29T07:22:33;9.18;;;5.03;;
27365;SDS011;14837;57.148;-2.144;2022-09-29T07:24:59;8.82;;;4.95;;
27365;SDS011;14837;57.148;-2.144;2022-09-29T07:27:27;7.32;;;4.53;;
27365;SDS011;14837;57.148;-2.144;2022-09-29T07:29:54;7.70;;;4.78;;
27365;SDS011;14837;57.148;-2.144;2022-09-29T07:32:29;11.93;;;5.22;;
27365;SDS011;14837;57.148;-2.144;2022-09-29T07:34:57;10.48;;;5.30;;
27365;SDS011;14837;57.148;-2.144;2022-09-29T07:37:25;11.15;;;4.88;;
27365;SDS011;14837;57.148;-2.144;2022-09-29T07:39:52;6.97;;;4.75;;
27365;SDS011;14837;57.148;-2.144;2022-09-29T07:42:19;8.30;;;5.00;;
27365;SDS011;14837;57.148;-2.144;2022-09-29T07:44:46;8.27;;;4.68;;
27365;SDS011;14837;57.148;-2.144;2022-09-29T07:47:17;7.97;;;5.18;;
27365;SDS011;14837;57.148;-2.144;2022-09-29T07:49:44;9.32;;;5.45;;
27365;SDS011;14837;57.148;-2.144;2022-09-29T07:52:11;7.85;;;5.38;;
27365;SDS011;14837;57.148;-2.144;2022-09-29T07:54:38;7.70;;;5.10;;
27365;SDS011;14837;57.148;-2.144;2022-09-29T07:57:04;13.55;;;5.65;;
27365;SDS011;14837;57.148;-2.144;2022-09-29T07:59:31;9.55;;;4.93;;
27365;SDS011;14837;57.148;-2.144;2022-09-29T08:01:58;9.95;;;5.43;;
27365;SDS011;14837;57.148;-2.144;2022-09-29T08:04:24;7.95;;;5.18;;
27365;SDS011;14837;57.148;-2.144;2022-09-29T08:06:51;7.55;;;5.10;;
27365;SDS011;14837;57.148;-2.144;2022-09-29T08:09:17;8.45;;;5.32;;
27365;SDS011;14837;57.148;-2.144;2022-09-29T08:11:44;7.40;;;4.50;;
27365;SDS011;14837;57.148;-2.144;2022-09-29T08:14:10;7.47;;;5.35;;
27365;SDS011;14837;57.148;-2.144;2022-09-29T08:16:37;12.57;;;4.88;;
27365;SDS011;14837;57.148;-2.144;2022-09-29T08:19:04;10.10;;;5.32;;
27365;SDS011;14837;57.148;-2.144;2022-09-29T08:21:31;8.50;;;5.35;;
27365;SDS011;14837;57.148;-2.144;2022-09-29T08:24:02;7.50;;;5.00;;
27365;SDS011;14837;57.148;-2.144;2022-09-29T08:26:30;6.82;;;4.13;;
27365;SDS011;14837;57.148;-2.144;2022-09-29T08:29:08;10.00;;;5.13;;
27365;SDS011;14837;57.148;-2.144;2022-09-29T08:31:41;9.27;;;4.15;;
27365;SDS011;14837;57.148;-2.144;2022-09-29T08:34:09;10.15;;;5.22;;
27365;SDS011;14837;57.148;-2.144;2022-09-29T08:36:35;12.15;;;5.35;;
27365;SDS011;14837;57.148;-2.144;2022-09-29T08:39:02;8.93;;;4.70;;
27365;SDS011;14837;57.148;-2.144;2022-09-29T08:52:05;10.20;;;4.20;;
27365;SDS011;14837;57.148;-2.144;2022-09-29T08:54:42;7.75;;;3.78;;
27365;SDS011;14837;57.148;-2.144;2022-09-29T08:57:14;13.23;;;3.92;;
27365;SDS011;14837;57.148;-2.144;2022-09-29T08:59:57;6.03;;;4.35;;
27365;SDS011;14837;57.148;-2.144;2022-09-29T09:07:45;6.57;;;3.65;;
27365;SDS011;14837;57.148;-2.144;2022-09-29T09:10:19;3.83;;;2.28;;
27365;SDS011;14837;57.148;-2.144;2022-09-29T09:12:54;6.32;;;3.67;;
27365;SDS011;14837;57.148;-2.144;2022-09-29T09:22:55;9.20;;;3.80;;
27365;SDS011;14837;57.148;-2.144;2022-09-29T09:25:27;8.57;;;4.03;;
27365;SDS011;14837;57.148;-2.144;2022-09-29T09:28:38;13.75;;;8.15;;
27365;SDS011;14837;57.148;-2.144;2022-09-29T09:30:46;14.95;;;8.05;;
27365;SDS011;14837;57.148;-2.144;2022-09-29T09:33:35;23.00;;;12.77;;
27365;SDS011;14837;57.148;-2.144;2022-09-29T09:38:39;13.07;;;8.43;;
27365;SDS011;14837;57.148;-2.144;2022-09-29T09:41:08;30.40;;;15.35;;
27365;SDS011;14837;57.148;-2.144;2022-09-29T09:43:39;29.42;;;16.10;;
27365;SDS011;14837;57.148;-2.144;2022-09-29T09:48:35;7.75;;;5.80;;
27365;SDS011;14837;57.148;-2.144;2022-09-29T09:51:12;10.65;;;5.10;;
27365;SDS011;14837;57.148;-2.144;2022-09-29T09:53:43;9.75;;;3.72;;
27365;SDS011;14837;57.148;-2.144;2022-09-29T09:58:59;4.10;;;3.15;;
27365;SDS011;14837;57.148;-2.144;2022-09-29T10:01:31;5.80;;;3.72;;
27365;SDS011;14837;57.148;-2.144;2022-09-29T10:03:57;5.93;;;3.38;;
27365;SDS011;14837;57.148;-2.144;2022-09-29T10:06:25;6.25;;;3.28;;
27365;SDS011;14837;57.148;-2.144;2022-09-29T10:08:51;6.25;;;4.95;;
27365;SDS011;14837;57.148;-2.144;2022-09-29T10:11:28;6.60;;;4.15;;
27365;SDS011;14837;57.148;-2.144;2022-09-29T10:14:01;4.80;;;3.33;;
27365;SDS011;14837;57.148;-2.144;2022-09-29T10:19:14;8.15;;;3.25;;
27365;SDS011;14837;57.148;-2.144;2022-09-29T10:21:46;5.68;;;4.03;;
27365;SDS011;14837;57.148;-2.144;2022-09-29T10:24:23;5.32;;;2.92;;
27365;SDS011;14837;57.148;-2.144;2022-09-29T10:26:50;6.20;;;2.90;;
27365;SDS011;14837;57.148;-2.144;2022-09-29T10:29:22;16.20;;;4.05;;
27365;SDS011;14837;57.148;-2.144;2022-09-29T10:34:43;4.82;;;2.70;;
27365;SDS011;14837;57.148;-2.144;2022-09-29T10:37:26;6.10;;;3.42;;
27365;SDS011;14837;57.148;-2.144;2022-09-29T10:40:03;6.82;;;3.75;;
27365;SDS011;14837;57.148;-2.144;2022-09-29T10:42:38;5.97;;;2.60;;
27365;SDS011;14837;57.148;-2.144;2022-09-29T10:45:15;3.85;;;3.20;;
27365;SDS011;14837;57.148;-2.144;2022-09-29T10:47:47;7.03;;;3.00;;
27365;SDS011;14837;57.148;-2.144;2022-09-29T10:52:47;2.85;;;2.33;;
27365;SDS011;14837;57.148;-2.144;2022-09-29T10:55:16;4.38;;;2.85;;
27365;SDS011;14837;57.148;-2.144;2022-09-29T10:57:43;5.97;;;3.13;;
27365;SDS011;14837;57.148;-2.144;2022-09-29T11:03:01;7.95;;;3.33;;
27365;SDS011;14837;57.148;-2.144;2022-09-29T11:05:30;7.53;;;3.97;;
27365;SDS011;14837;57.148;-2.144;2022-09-29T11:07:56;7.30;;;3.72;;
27365;SDS011;14837;57.148;-2.144;2022-09-29T11:10:26;7.43;;;2.97;;
27365;SDS011;14837;57.148;-2.144;2022-09-29T11:12:53;5.15;;;2.45;;
27365;SDS011;14837;57.148;-2.144;2022-09-29T11:15:26;4.20;;;2.58;;
27365;SDS011;14837;57.148;-2.144;2022-09-29T11:17:52;5.18;;;2.72;;
27365;SDS011;14837;57.148;-2.144;2022-09-29T11:20:19;4.78;;;3.00;;
27365;SDS011;14837;57.148;-2.144;2022-09-29T11:27:52;5.20;;;3.22;;
27365;SDS011;14837;57.148;-2.144;2022-09-29T11:36:03;5.25;;;2.75;;
27365;SDS011;14837;57.148;-2.144;2022-09-29T11:41:22;4.85;;;3.00;;
27365;SDS011;14837;57.148;-2.144;2022-09-29T11:43:54;6.13;;;3.38;;
27365;SDS011;14837;57.148;-2.144;2022-09-29T12:00:17;4.82;;;3.08;;
27365;SDS011;14837;57.148;-2.144;2022-09-29T12:16:10;7.55;;;3.88;;
27365;SDS011;14837;57.148;-2.144;2022-09-29T12:18:39;5.25;;;3.33;;
27365;SDS011;14837;57.148;-2.144;2022-09-29T12:21:07;12.40;;;7.47;;
27365;SDS011;14837;57.148;-2.144;2022-09-29T12:23:36;13.25;;;9.00;;
27365;SDS011;14837;57.148;-2.144;2022-09-29T12:26:14;13.63;;;7.97;;
27365;SDS011;14837;57.148;-2.144;2022-09-29T12:31:10;5.63;;;3.88;;
27365;SDS011;14837;57.148;-2.144;2022-09-29T12:33:43;6.18;;;5.03;;
27365;SDS011;14837;57.148;-2.144;2022-09-29T12:42:22;5.68;;;3.63;;
27365;SDS011;14837;57.148;-2.144;2022-09-29T12:44:46;7.07;;;4.78;;
27365;SDS011;14837;57.148;-2.144;2022-09-29T12:47:22;8.02;;;6.20;;
27365;SDS011;14837;57.148;-2.144;2022-09-29T12:50:04;5.03;;;2.90;;
27365;SDS011;14837;57.148;-2.144;2022-09-29T12:52:44;9.48;;;6.68;;
27365;SDS011;14837;57.148;-2.144;2022-09-29T12:55:19;7.10;;;6.35;;
27365;SDS011;14837;57.148;-2.144;2022-09-29T12:57:51;7.20;;;5.15;;
27365;SDS011;14837;57.148;-2.144;2022-09-29T13:00:20;6.75;;;3.35;;
27365;SDS011;14837;57.148;-2.144;2022-09-29T13:23:39;6.20;;;3.47;;
27365;SDS011;14837;57.148;-2.144;2022-09-29T13:28:47;6.10;;;3.95;;
27365;SDS011;14837;57.148;-2.144;2022-09-29T13:31:18;8.85;;;3.65;;
27365;SDS011;14837;57.148;-2.144;2022-09-29T13:33:47;5.65;;;3.65;;
27365;SDS011;14837;57.148;-2.144;2022-09-29T13:36:22;4.70;;;3.05;;
27365;SDS011;14837;57.148;-2.144;2022-09-29T13:38:54;5.97;;;3.33;;
27365;SDS011;14837;57.148;-2.144;2022-09-29T13:56:57;4.82;;;3.30;;
27365;SDS011;14837;57.148;-2.144;2022-09-29T13:59:25;6.88;;;3.80;;
27365;SDS011;14837;57.148;-2.144;2022-09-29T14:01:54;8.52;;;3.95;;
27365;SDS011;14837;57.148;-2.144;2022-09-29T14:07:03;8.65;;;3.72;;
27365;SDS011;14837;57.148;-2.144;2022-09-29T14:09:32;3.47;;;3.05;;
27365;SDS011;14837;57.148;-2.144;2022-09-29T14:12:00;5.65;;;3.63;;
27365;SDS011;14837;57.148;-2.144;2022-09-29T14:14:31;7.57;;;4.30;;
27365;SDS011;14837;57.148;-2.144;2022-09-29T14:22:04;6.10;;;3.53;;
27365;SDS011;14837;57.148;-2.144;2022-09-29T14:29:48;9.10;;;3.78;;
27365;SDS011;14837;57.148;-2.144;2022-09-29T14:32:21;6.68;;;3.90;;
27365;SDS011;14837;57.148;-2.144;2022-09-29T14:34:50;5.47;;;4.05;;
27365;SDS011;14837;57.148;-2.144;2022-09-29T14:37:19;6.10;;;3.97;;
27365;SDS011;14837;57.148;-2.144;2022-09-29T14:39:46;7.15;;;3.95;;
27365;SDS011;14837;57.148;-2.144;2022-09-29T14:42:33;8.77;;;3.92;;
27365;SDS011;14837;57.148;-2.144;2022-09-29T14:45:00;5.22;;;3.90;;
27365;SDS011;14837;57.148;-2.144;2022-09-29T14:47:54;7.40;;;3.63;;
27365;SDS011;14837;57.148;-2.144;2022-09-29T15:03:49;4.85;;;4.00;;
27365;SDS011;14837;57.148;-2.144;2022-09-29T15:06:21;9.40;;;3.95;;
27365;SDS011;14837;57.148;-2.144;2022-09-29T15:11:25;8.98;;;4.97;;
27365;SDS011;14837;57.148;-2.144;2022-09-29T15:13:56;7.90;;;3.85;;
27365;SDS011;14837;57.148;-2.144;2022-09-29T15:21:36;7.28;;;3.65;;
27365;SDS011;14837;57.148;-2.144;2022-09-29T15:26:35;6.70;;;4.60;;
27365;SDS011;14837;57.148;-2.144;2022-09-29T15:29:04;5.32;;;3.75;;
27365;SDS011;14837;57.148;-2.144;2022-09-29T15:31:31;6.80;;;4.22;;
27365;SDS011;14837;57.148;-2.144;2022-09-29T15:34:01;4.63;;;4.22;;
27365;SDS011;14837;57.148;-2.144;2022-09-29T15:36:34;13.13;;;4.68;;
27365;SDS011;14837;57.148;-2.144;2022-09-29T15:39:03;5.45;;;3.85;;
27365;SDS011;14837;57.148;-2.144;2022-09-29T15:41:31;6.53;;;3.83;;
27365;SDS011;14837;57.148;-2.144;2022-09-29T15:44:07;6.40;;;3.92;;
27365;SDS011;14837;57.148;-2.144;2022-09-29T15:46:39;4.75;;;3.78;;
27365;SDS011;14837;57.148;-2.144;2022-09-29T15:51:36;6.07;;;4.07;;
27365;SDS011;14837;57.148;-2.144;2022-09-29T15:54:04;4.78;;;3.83;;
27365;SDS011;14837;57.148;-2.144;2022-09-29T15:56:35;5.45;;;3.88;;
27365;SDS011;14837;57.148;-2.144;2022-09-29T16:04:50;7.03;;;4.90;;
27365;SDS011;14837;57.148;-2.144;2022-09-29T16:07:19;6.68;;;5.63;;
27365;SDS011;14837;57.148;-2.144;2022-09-29T16:09:46;5.18;;;4.60;;
27365;SDS011;14837;57.148;-2.144;2022-09-29T16:12:15;8.20;;;4.60;;
27365;SDS011;14837;57.148;-2.144;2022-09-29T16:14:42;6.85;;;4.70;;
27365;SDS011;14837;57.148;-2.144;2022-09-29T16:17:15;6.30;;;4.13;;
27365;SDS011;14837;57.148;-2.144;2022-09-29T16:19:42;9.77;;;4.70;;
27365;SDS011;14837;57.148;-2.144;2022-09-29T16:22:15;8.48;;;5.28;;
27365;SDS011;14837;57.148;-2.144;2022-09-29T16:24:51;6.07;;;4.43;;
27365;SDS011;14837;57.148;-2.144;2022-09-29T16:28:21;5.78;;;4.38;;
27365;SDS011;14837;57.148;-2.144;2022-09-29T16:30:36;6.20;;;4.50;;
27365;SDS011;14837;57.148;-2.144;2022-09-29T16:35:53;7.15;;;4.97;;
27365;SDS011;14837;57.148;-2.144;2022-09-29T16:38:37;4.25;;;3.80;;
27365;SDS011;14837;57.148;-2.144;2022-09-29T16:43:35;5.38;;;4.88;;
27365;SDS011;14837;57.148;-2.144;2022-09-29T16:46:04;8.57;;;5.05;;
27365;SDS011;14837;57.148;-2.144;2022-09-29T16:48:35;6.28;;;5.68;;
27365;SDS011;14837;57.148;-2.144;2022-09-29T16:51:06;9.55;;;5.90;;
27365;SDS011;14837;57.148;-2.144;2022-09-29T16:53:56;7.68;;;4.78;;
27365;SDS011;14837;57.148;-2.144;2022-09-29T16:56:29;8.65;;;5.32;;
27365;SDS011;14837;57.148;-2.144;2022-09-29T17:01:37;9.02;;;6.32;;
27365;SDS011;14837;57.148;-2.144;2022-09-29T17:04:04;6.95;;;5.47;;
27365;SDS011;14837;57.148;-2.144;2022-09-29T17:06:30;5.22;;;4.43;;
27365;SDS011;14837;57.148;-2.144;2022-09-29T17:08:57;6.57;;;4.38;;
27365;SDS011;14837;57.148;-2.144;2022-09-29T17:11:24;6.40;;;5.07;;
27365;SDS011;14837;57.148;-2.144;2022-09-29T17:13:53;5.68;;;4.40;;
27365;SDS011;14837;57.148;-2.144;2022-09-29T17:16:22;6.53;;;4.95;;
27365;SDS011;14837;57.148;-2.144;2022-09-29T17:18:50;6.82;;;4.85;;
27365;SDS011;14837;57.148;-2.144;2022-09-29T17:21:18;5.90;;;4.90;;
27365;SDS011;14837;57.148;-2.144;2022-09-29T17:23:45;7.20;;;5.50;;
27365;SDS011;14837;57.148;-2.144;2022-09-29T17:26:19;5.28;;;4.72;;
27365;SDS011;14837;57.148;-2.144;2022-09-29T17:29:04;6.22;;;4.35;;
27365;SDS011;14837;57.148;-2.144;2022-09-29T17:31:31;7.43;;;4.93;;
27365;SDS011;14837;57.148;-2.144;2022-09-29T17:33:58;8.23;;;5.53;;
27365;SDS011;14837;57.148;-2.144;2022-09-29T17:36:25;9.88;;;5.75;;
27365;SDS011;14837;57.148;-2.144;2022-09-29T17:38:52;7.82;;;4.90;;
27365;SDS011;14837;57.148;-2.144;2022-09-29T17:41:19;6.72;;;6.05;;
27365;SDS011;14837;57.148;-2.144;2022-09-29T17:43:46;6.07;;;4.93;;
27365;SDS011;14837;57.148;-2.144;2022-09-29T17:46:13;9.48;;;5.22;;
27365;SDS011;14837;57.148;-2.144;2022-09-29T17:48:40;5.28;;;4.75;;
27365;SDS011;14837;57.148;-2.144;2022-09-29T17:51:14;5.63;;;4.93;;
27365;SDS011;14837;57.148;-2.144;2022-09-29T17:53:43;8.63;;;4.30;;
27365;SDS011;14837;57.148;-2.144;2022-09-29T17:56:31;6.05;;;3.83;;
27365;SDS011;14837;57.148;-2.144;2022-09-29T17:59:02;4.95;;;4.45;;
27365;SDS011;14837;57.148;-2.144;2022-09-29T18:01:32;8.15;;;4.60;;
27365;SDS011;14837;57.148;-2.144;2022-09-29T18:04:02;7.53;;;5.00;;
27365;SDS011;14837;57.148;-2.144;2022-09-29T18:06:28;8.48;;;5.22;;
27365;SDS011;14837;57.148;-2.144;2022-09-29T18:08:56;6.30;;;4.68;;
27365;SDS011;14837;57.148;-2.144;2022-09-29T18:11:23;7.18;;;4.60;;
27365;SDS011;14837;57.148;-2.144;2022-09-29T18:13:50;5.25;;;4.78;;
27365;SDS011;14837;57.148;-2.144;2022-09-29T18:16:18;5.70;;;4.90;;
27365;SDS011;14837;57.148;-2.144;2022-09-29T18:18:45;7.35;;;5.03;;
27365;SDS011;14837;57.148;-2.144;2022-09-29T18:21:11;7.90;;;4.88;;
27365;SDS011;14837;57.148;-2.144;2022-09-29T18:23:38;8.20;;;5.20;;
27365;SDS011;14837;57.148;-2.144;2022-09-29T18:26:05;6.05;;;5.38;;
27365;SDS011;14837;57.148;-2.144;2022-09-29T18:28:32;6.22;;;5.30;;
27365;SDS011;14837;57.148;-2.144;2022-09-29T18:31:03;9.00;;;5.50;;
27365;SDS011;14837;57.148;-2.144;2022-09-29T18:33:37;6.15;;;5.07;;
27365;SDS011;14837;57.148;-2.144;2022-09-29T18:36:04;7.70;;;5.63;;